KBPI/BPI METAR and TAF weather

Enter ICAO airport designator
Station Type Date Time Source
KBPI METAR 2019/11/21 02:53 UTC NOAA

KBPI 210253Z AUTO 22008KT 3SM -SN BR BKN036 OVC055 M04/M04 A2988 RMK AO2 SLP131 P0000 60001 T10391044 51006


Station Type Date Time Source
KBPI Decoded METAR 2019/11/21 02:53 UTC NOAA

BIG PINEY-MARBLETON AIRPORT, WY, United States (KBPI) 42-35N 110-06W 2117M
Nov 20, 2019 - 09:53 PM EST / 2019.11.21 0253 UTC
Wind: from the SW (220 degrees) at 9 MPH (8 KT):0
Visibility: 3 mile(s):0
Sky conditions: overcast
Weather: light snow; mist
Precipitation last hour: A trace
Temperature: 25.0 F (-3.9 C)
Windchill: 15 F (-9 C):1
Dew Point: 24.1 F (-4.4 C)
Relative Humidity: 96%
Pressure (altimeter): 29.88 in. Hg (1011 hPa)
Pressure tendency: 0.02 inches (0.6 hPa) higher than three hours ago
ob: KBPI 210253Z AUTO 22008KT 3SM -SN BR BKN036 OVC055 M04/M04 A2988 RMK AO2 SLP131 P0000 60001 T10391044 51006
cycle: 3

Station Type Date Time Source
KBPI TAF 2019/11/20 22:04 UTC NOAA

TAF
AMD KBPI 202202Z 2022/2118 VRB03KT 1/2SM SN VV004
FM202300 24007KT 1 1/2SM -SN OVC008
FM210500 15006KT 4SM -SN OVC016
FM210900 17006KT P6SM VCSH OVC025
FM211200 15004KT P6SM BKN040

Example: see airport list